createdAt,value
2019-02-06T00:01:15.628Z,99.90
2019-02-06T00:03:44.467Z,99.90
2019-02-06T00:06:13.227Z,99.90
2019-02-06T00:08:41.888Z,99.90
2019-02-06T00:11:10.953Z,99.90
2019-02-06T00:13:39.592Z,99.90
2019-02-06T00:16:08.378Z,99.90
2019-02-06T00:18:37.077Z,99.90
2019-02-06T00:21:05.787Z,99.90
2019-02-06T00:23:34.573Z,99.90
2019-02-06T00:26:03.225Z,99.90
2019-02-06T00:28:32.283Z,99.90
2019-02-06T00:31:01.010Z,99.90
2019-02-06T00:33:29.692Z,99.90
2019-02-06T00:35:58.339Z,99.90
2019-02-06T00:38:27.048Z,99.90
2019-02-06T00:40:55.752Z,99.90
2019-02-06T00:43:24.631Z,99.90
2019-02-06T00:45:53.465Z,99.90
2019-02-06T00:48:22.119Z,99.90
2019-02-06T00:50:50.958Z,99.90
2019-02-06T00:53:19.615Z,99.90
2019-02-06T00:55:48.240Z,99.90
2019-02-06T00:58:16.900Z,99.90
2019-02-06T01:00:45.595Z,99.90
2019-02-06T01:03:14.466Z,99.90
2019-02-06T01:05:43.444Z,99.90
2019-02-06T01:08:12.272Z,99.90
2019-02-06T01:10:40.995Z,99.90
2019-02-06T01:13:09.738Z,99.90
2019-02-06T01:15:38.912Z,99.90
2019-02-06T01:18:07.680Z,99.90
2019-02-06T01:20:36.452Z,99.90
2019-02-06T01:23:05.395Z,99.90
2019-02-06T01:25:34.119Z,99.90
2019-02-06T01:28:02.903Z,99.90
2019-02-06T01:30:33.191Z,99.90
2019-02-06T01:33:01.947Z,99.90
2019-02-06T01:35:30.607Z,99.90
2019-02-06T01:37:59.379Z,99.90
2019-02-06T01:40:28.104Z,99.90
2019-02-06T01:42:56.684Z,99.90
2019-02-06T01:45:25.338Z,99.90
2019-02-06T01:47:54.410Z,99.90
2019-02-06T01:50:23.131Z,99.90
2019-02-06T01:52:51.977Z,99.90
2019-02-06T01:55:20.744Z,99.90
2019-02-06T01:57:49.390Z,99.90
2019-02-06T02:00:25.350Z,99.90
2019-02-06T02:02:54.299Z,99.90
2019-02-06T02:05:25.827Z,99.90
2019-02-06T02:07:54.559Z,99.90
2019-02-06T04:39:37.989Z,99.90
2019-02-06T04:42:06.752Z,99.90
2019-02-06T04:44:35.658Z,99.90
2019-02-06T04:47:04.620Z,99.90
2019-02-06T04:49:33.320Z,99.90
2019-02-06T04:52:02.213Z,99.90
2019-02-06T04:54:30.953Z,99.90
2019-02-06T04:56:59.668Z,99.90
2019-02-06T04:59:28.365Z,99.90
2019-02-06T05:01:56.978Z,99.90
2019-02-06T05:04:25.692Z,99.90
2019-02-06T05:06:54.381Z,99.90
2019-02-06T05:09:23.144Z,99.90
2019-02-06T05:11:51.842Z,99.90
2019-02-06T05:14:20.612Z,99.90
2019-02-06T05:16:49.273Z,99.90
2019-02-06T05:19:17.995Z,99.90
2019-02-06T05:21:46.690Z,99.90
2019-02-06T05:24:15.712Z,99.90
2019-02-06T05:26:44.493Z,99.90
2019-02-06T05:29:13.155Z,99.90
2019-02-06T05:31:41.912Z,99.90
2019-02-06T05:34:10.612Z,99.90
2019-02-06T05:36:39.363Z,99.90
2019-02-06T05:39:08.452Z,99.90
2019-02-06T05:41:37.392Z,99.90
2019-02-06T05:44:06.116Z,99.90
2019-02-06T05:46:34.816Z,99.90
2019-02-06T05:49:03.529Z,99.90
2019-02-06T05:51:32.104Z,99.90
2019-02-06T05:54:00.801Z,99.90
2019-02-06T05:56:29.457Z,99.90
2019-02-06T05:58:58.152Z,99.90
2019-02-06T06:01:26.924Z,99.90
2019-02-06T06:03:55.693Z,99.90
2019-02-06T06:06:24.413Z,99.90
2019-02-06T06:08:53.172Z,99.90
2019-02-06T06:11:21.853Z,99.90
2019-02-06T06:13:50.535Z,99.90
2019-02-06T06:16:19.233Z,99.90
2019-02-06T06:18:48.007Z,99.90
2019-02-06T06:21:16.780Z,99.90
2019-02-06T06:23:45.435Z,99.90
2019-02-06T06:26:14.161Z,99.90
2019-02-06T06:28:42.779Z,99.90
2019-02-06T06:31:11.531Z,99.90
2019-02-06T06:33:40.233Z,99.90
2019-02-06T06:36:08.967Z,99.90
2019-02-06T06:38:37.653Z,99.90
2019-02-06T06:41:06.416Z,99.90
2019-02-06T06:43:35.145Z,99.90
2019-02-06T06:46:03.854Z,99.90
2019-02-06T06:48:32.687Z,99.90
2019-02-06T06:51:01.383Z,99.90
2019-02-06T06:53:30.116Z,99.90
2019-02-06T06:56:01.701Z,99.90
2019-02-06T06:58:30.289Z,99.90
2019-02-06T07:00:59.051Z,99.90
2019-02-06T07:03:28.083Z,99.90
2019-02-06T07:05:56.792Z,99.90
2019-02-06T07:08:25.435Z,99.90
2019-02-06T07:10:53.999Z,99.90
2019-02-06T07:13:22.690Z,99.90
2019-02-06T07:15:51.347Z,99.90
2019-02-06T07:18:20.037Z,99.90
2019-02-06T07:20:48.616Z,99.90
2019-02-06T07:23:17.300Z,99.90
2019-02-06T07:25:46.020Z,99.90
2019-02-06T07:28:14.605Z,99.90
2019-02-06T07:30:43.416Z,99.90
2019-02-06T07:33:12.091Z,99.90
2019-02-06T07:35:41.169Z,99.90
2019-02-06T07:38:22.312Z,99.90
2019-02-06T07:40:40.313Z,99.90
2019-02-06T07:43:09.103Z,99.90
2019-02-06T07:45:37.700Z,99.90
2019-02-06T07:48:06.364Z,99.90
2019-02-06T07:50:35.432Z,99.90
2019-02-06T07:53:04.219Z,99.90
2019-02-06T07:55:32.954Z,99.90
2019-02-06T07:58:01.718Z,99.90
2019-02-06T08:00:31.106Z,99.90
2019-02-06T08:03:00.968Z,99.90
2019-02-06T08:05:32.891Z,99.90
2019-02-06T08:08:02.265Z,99.90
2019-02-06T08:10:35.810Z,99.90
2019-02-06T08:13:05.648Z,99.90
2019-02-06T08:15:35.379Z,99.90
2019-02-06T08:18:04.502Z,99.90
2019-02-06T08:20:33.961Z,99.90
2019-02-06T08:23:04.331Z,99.90
2019-02-06T08:25:33.025Z,99.90
2019-02-06T08:28:01.815Z,99.90
2019-02-06T08:30:33.117Z,99.90
2019-02-06T08:33:01.981Z,99.90
2019-02-06T08:35:31.043Z,99.90
2019-02-06T08:37:59.895Z,99.90
2019-02-06T08:40:30.387Z,99.90
2019-02-06T08:42:59.127Z,99.90
2019-02-06T08:45:28.972Z,99.90
2019-02-06T08:47:58.272Z,99.90
2019-02-06T08:50:28.212Z,99.90
2019-02-06T08:52:57.093Z,99.80
2019-02-06T08:55:33.048Z,97.30
2019-02-06T08:58:02.223Z,94.40
2019-02-06T09:00:39.021Z,91.30
2019-02-06T09:03:09.040Z,79.60
2019-02-06T09:05:37.877Z,65.20
2019-02-06T09:08:06.955Z,59.50
2019-02-06T09:10:36.060Z,56.60
2019-02-06T09:13:06.280Z,54.90
2019-02-06T09:15:35.048Z,52.20
2019-02-06T09:18:03.931Z,50.70
2019-02-06T09:20:32.675Z,50.20
2019-02-06T09:23:01.468Z,47.80
2019-02-06T09:25:30.345Z,44.30
2019-02-06T09:27:59.218Z,43.20
2019-02-06T09:30:30.709Z,42.10
2019-02-06T09:32:59.552Z,40.40
2019-02-06T09:35:28.433Z,39.20
2019-02-06T09:37:57.146Z,36.90
2019-02-06T09:40:29.358Z,35.90
2019-02-06T09:42:58.231Z,35.50
2019-02-06T09:45:27.004Z,34.70
2019-02-06T09:47:55.715Z,36.30
2019-02-06T09:50:30.032Z,37.30
2019-02-06T09:53:00.351Z,38.00
2019-02-06T09:55:29.411Z,37.90
2019-02-06T09:57:58.083Z,38.10
2019-02-06T10:00:29.320Z,38.60
2019-02-06T10:02:58.081Z,37.40
2019-02-06T10:05:27.056Z,36.30
2019-02-06T10:07:55.830Z,35.40
2019-02-06T10:10:33.663Z,34.20
2019-02-06T10:13:03.427Z,34.40
2019-02-06T10:15:34.383Z,34.60
2019-02-06T10:18:03.478Z,34.10
2019-02-06T10:20:35.130Z,35.00
2019-02-06T10:23:04.094Z,35.40
2019-02-06T10:25:33.852Z,34.40
2019-02-06T10:28:02.578Z,34.10
2019-02-06T10:30:37.122Z,32.70
2019-02-06T10:33:07.450Z,32.60
2019-02-06T10:35:36.567Z,30.80
2019-02-06T10:38:05.442Z,30.60
2019-02-06T10:40:34.280Z,30.60
2019-02-06T10:43:03.095Z,30.50
2019-02-06T10:45:33.762Z,30.60
2019-02-06T10:48:02.393Z,30.20
2019-02-06T10:50:39.448Z,30.20
2019-02-06T10:53:10.761Z,28.90
2019-02-06T10:55:39.731Z,27.80
2019-02-06T10:58:08.482Z,28.50
2019-02-06T11:00:41.907Z,27.60
2019-02-06T11:03:10.707Z,27.50
2019-02-06T11:05:41.636Z,26.90
2019-02-06T11:08:12.067Z,25.40
2019-02-06T11:10:40.844Z,25.40
2019-02-06T11:13:09.651Z,26.10
2019-02-06T11:15:38.628Z,25.70
2019-02-06T11:18:07.570Z,25.00
2019-02-06T11:20:38.973Z,24.40
2019-02-06T11:23:08.365Z,24.60
2019-02-06T11:25:38.296Z,23.30
2019-02-06T11:28:07.842Z,22.80
2019-02-06T11:30:38.296Z,21.80
2019-02-06T11:33:07.911Z,21.10
2019-02-06T11:35:36.748Z,20.80
2019-02-06T11:38:06.821Z,20.90
2019-02-06T11:40:41.748Z,20.60
2019-02-06T11:43:10.850Z,19.70
2019-02-06T11:45:39.642Z,18.50
2019-02-06T11:48:08.433Z,17.90
2019-02-06T11:50:51.726Z,16.70
2019-02-06T11:53:20.545Z,16.20
2019-02-06T11:55:49.557Z,14.90
2019-02-06T11:58:18.292Z,14.60
2019-02-06T12:00:54.568Z,15.10
2019-02-06T12:03:23.469Z,15.90
2019-02-06T12:05:52.245Z,17.30
2019-02-06T12:08:21.103Z,19.50
2019-02-06T12:10:50.261Z,20.80
2019-02-06T12:13:19.313Z,22.10
2019-02-06T12:15:50.400Z,22.40
2019-02-06T12:18:19.408Z,23.00
2019-02-06T12:20:48.234Z,23.20
2019-02-06T12:23:17.185Z,24.00
2019-02-06T12:25:46.677Z,24.00
2019-02-06T12:28:15.383Z,24.70
2019-02-06T12:30:44.178Z,26.70
2019-02-06T12:33:12.968Z,26.60
2019-02-06T12:35:41.729Z,27.50
2019-02-06T12:38:10.485Z,29.00
2019-02-06T12:40:45.176Z,29.10
2019-02-06T12:43:15.433Z,28.70
2019-02-06T12:45:44.253Z,28.00
2019-02-06T12:48:14.043Z,28.20
2019-02-06T12:50:42.830Z,27.60
2019-02-06T12:53:11.781Z,25.80
2019-02-06T12:55:41.464Z,26.30
2019-02-06T12:58:10.658Z,26.60
2019-02-06T13:00:41.907Z,26.30
2019-02-06T13:03:13.834Z,26.50
2019-02-06T13:05:42.069Z,25.40
2019-02-06T13:08:17.346Z,26.00
2019-02-06T13:10:44.470Z,26.20
2019-02-06T13:13:15.007Z,26.00
2019-02-06T13:15:47.587Z,26.00
2019-02-06T13:18:24.216Z,27.00
2019-02-06T13:20:52.746Z,26.80
2019-02-06T13:25:53.674Z,26.50
2019-02-06T13:28:23.559Z,24.90
2019-02-06T13:30:52.193Z,24.90
2019-02-06T13:33:20.973Z,25.50
2019-02-06T13:35:54.165Z,26.50
2019-02-06T13:38:23.353Z,27.00
2019-02-06T13:40:52.598Z,27.00
2019-02-06T13:43:21.338Z,27.60
2019-02-06T13:45:50.123Z,27.00
2019-02-06T13:48:20.133Z,27.90
2019-02-06T13:50:48.961Z,27.30
2019-02-06T13:53:17.763Z,27.40
2019-02-06T13:55:46.905Z,27.10
2019-02-06T13:58:20.099Z,28.40
2019-02-06T14:00:48.746Z,28.50
2019-02-06T14:03:19.124Z,29.90
2019-02-06T14:05:49.442Z,29.90
2019-02-06T14:08:18.229Z,29.30
2019-02-06T14:10:58.377Z,29.00
2019-02-06T14:13:18.386Z,29.60
2019-02-06T14:15:48.918Z,30.10
2019-02-06T14:18:17.857Z,31.30
2019-02-06T14:20:48.349Z,32.60
2019-02-06T14:23:22.941Z,34.20
2019-02-06T14:26:02.829Z,34.90
2019-02-06T14:28:45.151Z,36.00
2019-02-06T14:31:33.396Z,36.10
2019-02-06T14:34:10.657Z,35.90
2019-02-06T14:36:51.203Z,32.70
2019-02-06T14:39:34.695Z,31.40
2019-02-06T14:42:09.358Z,31.40
2019-02-06T14:44:43.503Z,31.30
2019-02-06T14:47:15.190Z,33.50
2019-02-06T14:50:10.722Z,34.40
2019-02-06T14:52:53.863Z,34.30
2019-02-06T14:55:31.396Z,34.50
2019-02-06T14:58:31.675Z,36.20
2019-02-06T15:01:09.331Z,34.70
2019-02-06T15:04:12.382Z,33.30
2019-02-06T15:06:49.394Z,33.80
2019-02-06T15:09:39.975Z,34.60
2019-02-06T15:12:29.660Z,35.10
2019-02-06T15:15:18.009Z,37.00
2019-02-06T15:18:07.607Z,37.20
2019-02-06T15:21:04.626Z,37.10
2019-02-06T15:24:00.210Z,37.80
2019-02-06T15:26:32.792Z,38.70
2019-02-06T15:29:23.884Z,40.30
2019-02-06T15:32:24.379Z,42.90
2019-02-06T15:34:56.386Z,44.10
2019-02-06T15:37:30.596Z,44.90
2019-02-06T15:40:09.576Z,45.90
2019-02-06T15:42:52.649Z,46.50
2019-02-06T15:45:39.136Z,48.00
2019-02-06T15:48:16.406Z,48.90
2019-02-06T15:50:57.038Z,49.40
2019-02-06T15:53:34.511Z,51.50
2019-02-06T15:56:17.654Z,53.80
2019-02-06T15:58:55.185Z,54.20
2019-02-06T16:01:32.917Z,54.80
2019-02-06T16:04:23.736Z,55.20
2019-02-06T16:07:01.049Z,57.00
2019-02-06T16:09:51.973Z,58.90
2019-02-06T16:12:38.186Z,60.30
2019-02-06T16:15:42.004Z,64.60
2019-02-06T16:18:16.852Z,68.10
2019-02-06T16:21:00.409Z,71.60
2019-02-06T16:23:49.749Z,76.30
2019-02-06T16:26:39.224Z,80.00
2019-02-06T16:29:16.712Z,84.80
2019-02-06T16:32:07.645Z,86.90
2019-02-06T16:34:47.696Z,90.20
2019-02-06T16:37:44.569Z,92.20
2019-02-06T16:40:21.947Z,93.90
2019-02-06T16:43:14.209Z,94.80
2019-02-06T16:45:51.756Z,95.30
2019-02-06T16:48:35.407Z,95.70
2019-02-06T16:51:09.886Z,96.20
2019-02-06T16:54:06.773Z,96.00
2019-02-06T16:56:44.165Z,96.70
2019-02-06T16:59:21.429Z,97.60
2019-02-06T17:01:55.868Z,98.50
2019-02-06T17:04:33.090Z,98.90
2019-02-06T17:07:16.178Z,99.40
2019-02-06T17:09:53.672Z,99.90
2019-02-06T17:12:39.935Z,99.90
2019-02-06T17:15:27.281Z,99.90
2019-02-06T17:18:16.829Z,99.90
2019-02-06T17:21:19.692Z,99.90
2019-02-06T17:24:22.854Z,99.90
2019-02-06T17:26:57.625Z,99.90
2019-02-06T17:29:53.287Z,99.90
2019-02-06T17:32:42.796Z,99.90
2019-02-06T17:35:26.066Z,99.90
2019-02-06T17:38:18.349Z,99.90
2019-02-06T17:41:13.954Z,99.90
2019-02-06T17:43:51.247Z,99.90
2019-02-06T17:46:31.924Z,99.90
2019-02-06T17:49:09.297Z,99.90
2019-02-06T17:51:41.030Z,99.90
2019-02-06T17:54:34.466Z,99.90
2019-02-06T17:57:03.408Z,99.90
2019-02-06T17:59:31.981Z,99.90
2019-02-06T18:02:00.892Z,99.90
2019-02-06T18:04:29.653Z,99.90
2019-02-06T18:06:58.528Z,99.90
2019-02-06T18:09:27.252Z,99.90
2019-02-06T18:11:55.985Z,99.90
2019-02-06T18:14:24.887Z,99.90
2019-02-06T18:16:53.612Z,99.90
2019-02-06T18:19:22.391Z,99.90
2019-02-06T18:21:51.447Z,99.90
2019-02-06T18:24:20.111Z,99.90
2019-02-06T18:26:48.873Z,99.90
2019-02-06T18:29:17.588Z,99.90
2019-02-06T18:31:46.352Z,99.90
2019-02-06T18:34:14.999Z,99.90
2019-02-06T18:36:43.719Z,99.90
2019-02-06T18:39:12.886Z,99.90
2019-02-06T18:41:41.809Z,99.90
2019-02-06T18:44:10.671Z,99.90
2019-02-06T18:46:39.401Z,99.90
2019-02-06T18:49:08.191Z,99.90
2019-02-06T18:51:37.057Z,99.90
2019-02-06T18:54:06.987Z,99.90
2019-02-06T18:56:35.719Z,99.90
2019-02-06T18:59:05.700Z,99.90
2019-02-06T19:01:36.474Z,99.90
2019-02-06T19:04:06.335Z,99.90
2019-02-06T19:06:35.125Z,99.90
2019-02-06T19:09:05.320Z,99.90
2019-02-06T19:11:34.015Z,99.90
2019-02-06T19:14:02.737Z,99.90
2019-02-06T19:16:31.469Z,99.90
2019-02-06T19:19:00.372Z,99.90
2019-02-06T19:21:29.150Z,99.90
2019-02-06T19:23:57.792Z,99.90
2019-02-06T19:26:26.561Z,99.90
2019-02-06T19:28:55.220Z,99.90
2019-02-06T19:31:23.925Z,99.90
2019-02-06T19:33:52.639Z,99.90
2019-02-06T19:36:21.547Z,99.90
2019-02-06T19:38:50.237Z,99.90
2019-02-06T19:41:18.992Z,99.90
2019-02-06T19:43:47.751Z,99.90
2019-02-06T19:46:16.349Z,99.90
2019-02-06T19:48:45.060Z,99.90
2019-02-06T19:51:13.752Z,99.90
2019-02-06T19:53:42.550Z,99.90
2019-02-06T19:56:11.438Z,99.90
2019-02-06T19:58:41.119Z,99.90
2019-02-06T20:01:10.245Z,99.90
2019-02-06T20:03:38.959Z,99.90
2019-02-06T20:06:07.797Z,99.90
2019-02-06T20:08:36.579Z,99.90
2019-02-06T20:11:05.412Z,99.90
2019-02-06T20:13:34.463Z,99.90
2019-02-06T20:16:03.197Z,99.90
2019-02-06T20:18:31.948Z,99.90
2019-02-06T20:21:00.660Z,99.90
2019-02-06T20:23:29.430Z,99.90
2019-02-06T20:25:58.117Z,99.90
2019-02-06T20:28:26.812Z,99.90
2019-02-06T20:30:55.885Z,99.90
2019-02-06T20:33:24.644Z,99.90
2019-02-06T20:35:53.295Z,99.90
2019-02-06T20:38:21.932Z,99.90
2019-02-06T20:40:50.647Z,99.90
2019-02-06T20:43:22.145Z,99.90
2019-02-06T20:45:49.857Z,99.90
2019-02-06T20:48:18.859Z,99.90
2019-02-06T20:50:47.642Z,99.90
2019-02-06T20:53:16.386Z,99.90
2019-02-06T20:55:45.104Z,99.90
2019-02-06T20:58:13.882Z,99.90
2019-02-06T21:00:42.729Z,99.90
2019-02-06T21:03:11.449Z,99.90
2019-02-06T21:05:40.656Z,99.90
2019-02-06T21:08:09.462Z,99.90
2019-02-06T21:10:38.199Z,99.90
2019-02-06T21:13:07.549Z,99.90
2019-02-06T21:15:36.339Z,99.90
2019-02-06T21:18:05.170Z,99.90
2019-02-06T21:20:33.900Z,99.90
2019-02-06T21:23:02.977Z,99.90
2019-02-06T21:25:31.742Z,99.90
2019-02-06T21:28:00.423Z,99.90
2019-02-06T21:30:34.522Z,99.90
2019-02-06T21:33:03.243Z,99.90
2019-02-06T21:35:32.007Z,99.90
2019-02-06T21:38:00.902Z,99.90
2019-02-06T21:40:36.801Z,99.90
2019-02-06T21:43:06.644Z,99.90
2019-02-06T21:45:35.612Z,99.90
2019-02-06T21:48:04.873Z,99.90
2019-02-06T21:50:33.630Z,99.90
2019-02-06T21:53:02.383Z,99.90
2019-02-06T21:55:31.116Z,99.90
2019-02-06T21:57:59.809Z,99.90
2019-02-06T22:00:30.455Z,99.90
2019-02-06T22:02:59.235Z,99.90
2019-02-06T22:05:27.964Z,99.90
2019-02-06T22:07:56.708Z,99.90
2019-02-06T22:10:25.484Z,99.90
2019-02-06T22:12:54.147Z,99.90
2019-02-06T22:15:25.875Z,99.90
2019-02-06T22:17:54.529Z,99.90
2019-02-06T22:20:23.256Z,99.90
2019-02-06T22:22:52.035Z,99.90
2019-02-06T22:25:20.859Z,99.90
2019-02-06T22:27:50.644Z,99.90
2019-02-06T22:30:21.923Z,99.90
2019-02-06T22:32:50.790Z,99.90
2019-02-06T22:35:19.576Z,99.90
2019-02-06T22:37:48.323Z,99.90
2019-02-06T22:40:19.418Z,99.90
2019-02-06T22:42:48.111Z,99.90
2019-02-06T22:45:21.298Z,99.90
2019-02-06T22:47:50.442Z,99.90
2019-02-06T22:50:21.596Z,99.90
2019-02-06T22:52:50.323Z,99.90
2019-02-06T22:55:19.176Z,99.90
2019-02-06T22:57:48.040Z,99.90
2019-02-06T23:00:32.908Z,99.90
2019-02-06T23:03:01.668Z,99.90
2019-02-06T23:05:30.429Z,99.90
2019-02-06T23:07:59.204Z,99.90
2019-02-06T23:10:28.007Z,99.90
2019-02-06T23:12:56.705Z,99.90
2019-02-06T23:15:25.428Z,99.90
2019-02-06T23:17:54.503Z,99.90
2019-02-06T23:20:23.212Z,99.90
2019-02-06T23:22:51.992Z,99.90
2019-02-06T23:25:20.772Z,99.90
2019-02-06T23:27:49.512Z,99.90
2019-02-06T23:30:18.285Z,99.90
2019-02-06T23:32:47.244Z,99.90
2019-02-06T23:35:16.004Z,99.90
2019-02-06T23:37:44.661Z,99.90
2019-02-06T23:40:16.957Z,99.90
2019-02-06T23:42:45.784Z,99.90
2019-02-06T23:45:14.559Z,99.90
2019-02-06T23:47:43.474Z,99.90
2019-02-06T23:50:16.521Z,99.90
2019-02-06T23:52:45.284Z,99.90
2019-02-06T23:55:14.201Z,99.90
2019-02-06T23:57:42.982Z,99.90
